Time,TemperatureF,DewpointF,PressureIn,WindDirection,WindDirectionDegrees,WindSpeedMPH,WindSpeedGustMPH,Humidity,HourlyPrecipIn,Conditions,Clouds,dailyrainin,SoftwareType,DateUTC
2013-05-04 00:04:00,49.8,38.9,30.15,SE,135,0.0,0.0,66,0.00,CLR,FEW,0.00,WeatherDisplay:10.37,2013-05-04 07:04:00,
2013-05-04 00:09:00,49.8,39.3,30.16,SE,135,0.0,0.0,67,0.00,CLR,FEW,0.00,WeatherDisplay:10.37,2013-05-04 07:09:00,
2013-05-04 00:14:00,49.5,39.0,30.16,SE,135,0.0,0.0,67,0.00,CLR,FEW,0.00,WeatherDisplay:10.37,2013-05-04 07:14:00,
2013-05-04 00:19:00,49.3,39.2,30.16,SE,135,0.0,0.0,68,0.00,CLR,FEW,0.00,WeatherDisplay:10.37,2013-05-04 07:19:00,
2013-05-04 00:24:00,49.3,39.2,30.15,SE,135,0.0,0.0,68,0.00,CLR,FEW,0.00,WeatherDisplay:10.37,2013-05-04 07:24:00,
2013-05-04 00:29:00,49.1,39.0,30.16,SE,135,0.0,0.0,68,0.00,CLR,FEW,0.00,WeatherDisplay:10.37,2013-05-04 07:29:00,
2013-05-04 00:34:00,49.1,39.0,30.16,ESE,112,0.0,0.0,68,0.00,CLR,FEW,0.00,WeatherDisplay:10.37,2013-05-04 07:34:00,
2013-05-04 00:39:00,49.1,39.4,30.16,ESE,112,0.0,0.0,69,0.00,CLR,FEW,0.00,WeatherDisplay:10.37,2013-05-04 07:39:00,
2013-05-04 00:44:00,48.9,39.2,30.17,ESE,112,0.0,0.0,69,0.00,CLR,FEW,0.00,WeatherDisplay:10.37,2013-05-04 07:44:00,
2013-05-04 00:49:00,48.9,38.8,30.16,ESE,112,0.0,0.0,68,0.00,CLR,FEW,0.00,WeatherDisplay:10.37,2013-05-04 07:49:00,
2013-05-04 00:54:00,48.7,39.4,30.16,ESE,112,0.0,0.0,70,0.00,CLR,FEW,0.00,WeatherDisplay:10.37,2013-05-04 07:54:00,
2013-05-04 00:59:00,48.7,39.0,30.17,ESE,112,0.0,0.0,69,0.00,CLR,FEW,0.00,WeatherDisplay:10.37,2013-05-04 07:59:00,
2013-05-04 01:04:00,48.6,38.8,30.17,ESE,112,0.0,0.0,69,0.00,CLR,FEW,0.00,WeatherDisplay:10.37,2013-05-04 08:04:00,
2013-05-04 01:09:00,48.4,39.0,30.17,ESE,112,0.0,0.0,70,0.00,CLR,FEW,0.00,WeatherDisplay:10.37,2013-05-04 08:09:00,
2013-05-04 01:14:00,48.0,38.7,30.17,ESE,112,0.0,0.0,70,0.00,CLR,FEW,0.00,WeatherDisplay:10.37,2013-05-04 08:14:00,
2013-05-04 01:19:00,48.0,38.7,30.17,ESE,112,0.0,0.0,70,0.00,CLR,FEW,0.00,WeatherDisplay:10.37,2013-05-04 08:19:00,
2013-05-04 01:24:00,47.8,38.5,30.16,ESE,112,0.0,0.0,70,0.00,CLR,FEW,0.00,WeatherDisplay:10.37,2013-05-04 08:24:00,
2013-05-04 01:29:00,47.7,38.4,30.16,ESE,112,0.0,0.0,70,0.00,CLR,FEW,0.00,WeatherDisplay:10.37,2013-05-04 08:29:00,
2013-05-04 01:34:00,47.3,38.0,30.17,ESE,112,0.0,0.0,70,0.00,CLR,FEW,0.00,WeatherDisplay:10.37,2013-05-04 08:34:00,
2013-05-04 01:39:00,47.3,38.4,30.17,ESE,112,0.0,0.0,71,0.00,CLR,FEW,0.00,WeatherDisplay:10.37,2013-05-04 08:39:00,
2013-05-04 01:44:00,47.1,38.2,30.16,ESE,112,0.0,0.0,71,0.00,CLR,FEW,0.00,WeatherDisplay:10.37,2013-05-04 08:44:00,
2013-05-04 01:49:00,46.8,37.9,30.16,ESE,112,0.0,0.0,71,0.00,CLR,FEW,0.00,WeatherDisplay:10.37,2013-05-04 08:49:00,
2013-05-04 01:54:00,46.6,37.7,30.16,ESE,112,0.0,0.0,71,0.00,CLR,FEW,0.00,WeatherDisplay:10.37,2013-05-04 08:54:00,
2013-05-04 01:59:00,46.4,37.5,30.16,ESE,112,0.0,0.0,71,0.00,CLR,FEW,0.00,WeatherDisplay:10.37,2013-05-04 08:59:00,
2013-05-04 02:04:00,46.2,37.3,30.16,ESE,112,0.0,0.0,71,0.00,CLR,FEW,0.00,WeatherDisplay:10.37,2013-05-04 09:04:00,
2013-05-04 02:09:00,46.0,37.2,30.17,ESE,112,0.0,0.0,71,0.00,CLR,FEW,0.00,WeatherDisplay:10.37,2013-05-04 09:09:00,
2013-05-04 02:14:00,45.5,36.6,30.16,ESE,112,0.0,0.0,71,0.00,CLR,FEW,0.00,WeatherDisplay:10.37,2013-05-04 09:14:00,
2013-05-04 02:19:00,45.3,36.5,30.16,ESE,112,0.0,0.0,71,0.00,CLR,FEW,0.00,WeatherDisplay:10.37,2013-05-04 09:19:00,
2013-05-04 02:24:00,45.1,36.3,30.16,ESE,112,0.0,0.0,71,0.00,CLR,FEW,0.00,WeatherDisplay:10.37,2013-05-04 09:24:00,
2013-05-04 02:29:00,45.0,36.1,30.17,ESE,112,0.0,0.0,71,0.00,CLR,FEW,0.00,WeatherDisplay:10.37,2013-05-04 09:29:00,
2013-05-04 02:34:00,45.0,36.1,30.16,ESE,112,0.0,0.0,71,0.00,CLR,FEW,0.00,WeatherDisplay:10.37,2013-05-04 09:34:00,
2013-05-04 02:39:00,44.6,35.8,30.16,ESE,112,0.0,0.0,71,0.00,CLR,FEW,0.00,WeatherDisplay:10.37,2013-05-04 09:39:00,
2013-05-04 02:44:00,44.4,36.0,30.16,ESE,112,0.0,0.0,72,0.00,CLR,FEW,0.00,WeatherDisplay:10.37,2013-05-04 09:44:00,
2013-05-04 02:49:00,44.4,36.3,30.17,ESE,112,0.0,0.0,73,0.00,CLR,FEW,0.00,WeatherDisplay:10.37,2013-05-04 09:49:00,
2013-05-04 02:54:00,44.2,36.1,30.17,ESE,112,0.0,0.0,73,0.00,CLR,FEW,0.00,WeatherDisplay:10.37,2013-05-04 09:54:00,
2013-05-04 02:59:00,43.9,35.4,30.17,ESE,112,0.0,0.0,72,0.00,CLR,FEW,0.00,WeatherDisplay:10.37,2013-05-04 09:59:00,
2013-05-04 03:04:00,43.9,35.8,30.16,ESE,112,0.0,0.0,73,0.00,CLR,FEW,0.00,WeatherDisplay:10.37,2013-05-04 10:04:00,
2013-05-04 03:09:00,43.7,35.6,30.17,ESE,112,0.0,0.0,73,0.00,CLR,FEW,0.00,WeatherDisplay:10.37,2013-05-04 10:09:00,
2013-05-04 03:14:00,43.5,35.4,30.17,ESE,112,0.0,0.0,73,0.00,CLR,FEW,0.00,WeatherDisplay:10.37,2013-05-04 10:14:00,
2013-05-04 03:19:00,43.3,35.3,30.17,ESE,112,0.0,0.0,73,0.00,CLR,FEW,0.00,WeatherDisplay:10.37,2013-05-04 10:19:00,
2013-05-04 03:24:00,43.3,35.3,30.17,ESE,112,0.0,0.0,73,0.00,CLR,FEW,0.00,WeatherDisplay:10.37,2013-05-04 10:24:00,
2013-05-04 03:29:00,43.2,35.1,30.17,ESE,112,0.0,0.0,73,0.00,CLR,FEW,0.00,WeatherDisplay:10.37,2013-05-04 10:29:00,
2013-05-04 03:34:00,43.0,34.9,30.17,ESE,112,0.0,0.0,73,0.00,CLR,FEW,0.00,WeatherDisplay:10.37,2013-05-04 10:34:00,
2013-05-04 03:39:00,42.6,34.6,30.17,ESE,112,0.0,0.0,73,0.00,CLR,FEW,0.00,WeatherDisplay:10.37,2013-05-04 10:39:00,
2013-05-04 03:44:00,42.6,34.9,30.18,ESE,112,0.0,0.0,74,0.00,CLR,FEW,0.00,WeatherDisplay:10.37,2013-05-04 10:44:00,
2013-05-04 03:49:00,42.4,34.7,30.18,ESE,112,0.0,0.0,74,0.00,CLR,FEW,0.00,WeatherDisplay:10.37,2013-05-04 10:49:00,
2013-05-04 03:54:00,42.3,34.6,30.17,ESE,112,0.0,0.0,74,0.00,CLR,FEW,0.00,WeatherDisplay:10.37,2013-05-04 10:54:00,
2013-05-04 03:59:00,42.1,34.4,30.17,ESE,112,0.0,0.0,74,0.00,CLR,FEW,0.00,WeatherDisplay:10.37,2013-05-04 10:59:00,
2013-05-04 04:04:00,41.9,34.2,30.18,ESE,112,0.0,0.0,74,0.00,CLR,FEW,0.00,WeatherDisplay:10.37,2013-05-04 11:04:00,
2013-05-04 04:09:00,41.7,34.4,30.18,ESE,112,0.0,0.0,75,0.00,CLR,FEW,0.00,WeatherDisplay:10.37,2013-05-04 11:09:00,
2013-05-04 04:14:00,41.5,33.9,30.18,ESE,112,0.0,0.0,74,0.00,CLR,FEW,0.00,WeatherDisplay:10.37,2013-05-04 11:14:00,
2013-05-04 04:19:00,41.5,33.9,30.18,ESE,112,0.0,0.0,74,0.00,CLR,FEW,0.00,WeatherDisplay:10.37,2013-05-04 11:19:00,
2013-05-04 04:24:00,41.4,33.7,30.18,ESE,112,0.0,0.0,74,0.00,CLR,FEW,0.00,WeatherDisplay:10.37,2013-05-04 11:24:00,
2013-05-04 04:29:00,41.2,33.9,30.18,ESE,112,0.0,0.0,75,0.00,CLR,FEW,0.00,WeatherDisplay:10.37,2013-05-04 11:29:00,
2013-05-04 04:34:00,41.0,33.7,30.18,ESE,112,0.0,0.0,75,0.00,CLR,FEW,0.00,WeatherDisplay:10.37,2013-05-04 11:34:00,
2013-05-04 04:39:00,41.0,33.7,30.18,ESE,112,0.0,0.0,75,0.00,CLR,FEW,0.00,WeatherDisplay:10.37,2013-05-04 11:39:00,
2013-05-04 04:45:00,40.8,33.5,30.19,ESE,112,0.0,0.0,75,0.00,CLR,FEW,0.00,WeatherDisplay:10.37,2013-05-04 11:45:00,
2013-05-04 04:50:00,40.8,33.8,30.19,ESE,112,0.0,0.0,76,0.00,CLR,FEW,0.00,WeatherDisplay:10.37,2013-05-04 11:50:00,
2013-05-04 04:55:00,40.6,33.7,30.19,ESE,112,0.0,0.0,76,0.00,CLR,FEW,0.00,WeatherDisplay:10.37,2013-05-04 11:55:00,
2013-05-04 05:00:00,40.5,33.5,30.19,ESE,112,0.0,0.0,76,0.00,CLR,FEW,0.00,WeatherDisplay:10.37,2013-05-04 12:00:00,
2013-05-04 05:05:00,40.3,33.3,30.19,ESE,112,0.0,0.0,76,0.00,CLR,FEW,0.00,WeatherDisplay:10.37,2013-05-04 12:05:00,
2013-05-04 05:11:00,40.3,33.3,30.19,ESE,112,0.0,0.0,76,0.00,CLR,FEW,0.00,WeatherDisplay:10.37,2013-05-04 12:11:00,
2013-05-04 05:16:00,39.9,33.0,30.19,ESE,112,0.0,0.0,76,0.00,CLR,FEW,0.00,WeatherDisplay:10.37,2013-05-04 12:16:00,
2013-05-04 05:21:00,39.9,33.0,30.19,ESE,112,0.0,0.0,76,0.00,CLR,FEW,0.00,WeatherDisplay:10.37,2013-05-04 12:21:00,
2013-05-04 05:26:00,39.9,33.3,30.19,ESE,112,0.0,0.0,77,0.00,CLR,FEW,0.00,WeatherDisplay:10.37,2013-05-04 12:26:00,
2013-05-04 05:31:00,39.7,33.1,30.20,ESE,112,0.0,0.0,77,0.00,CLR,FEW,0.00,WeatherDisplay:10.37,2013-05-04 12:31:00,
2013-05-04 05:36:00,39.7,32.8,30.20,ESE,112,0.0,0.0,76,0.00,CLR,FEW,0.00,WeatherDisplay:10.37,2013-05-04 12:36:00,
2013-05-04 05:41:00,39.7,33.1,30.20,ESE,112,0.0,0.0,77,0.00,CLR,FEW,0.00,WeatherDisplay:10.37,2013-05-04 12:41:00,
2013-05-04 05:46:00,39.7,32.8,30.20,ESE,112,0.0,0.0,76,0.00,CLR,FEW,0.00,WeatherDisplay:10.37,2013-05-04 12:46:00,
2013-05-04 05:51:00,39.6,32.9,30.20,ESE,112,0.0,0.0,77,0.00,CLR,FEW,0.00,WeatherDisplay:10.37,2013-05-04 12:51:00,
2013-05-04 05:56:00,39.6,32.9,30.21,ESE,112,0.0,0.0,77,0.00,CLR,FEW,0.00,WeatherDisplay:10.37,2013-05-04 12:56:00,
2013-05-04 06:01:00,39.6,32.9,30.20,ESE,112,0.0,0.0,77,0.00,CLR,FEW,0.00,WeatherDisplay:10.37,2013-05-04 13:01:00,
2013-05-04 06:04:00,39.6,33.3,30.21,ESE,112,0.0,0.0,78,0.00,CLR,FEW,0.00,WeatherDisplay:10.37,2013-05-04 13:04:00,
2013-05-04 06:09:00,39.7,33.4,30.21,ESE,112,0.0,0.0,78,0.00,CLR,FEW,0.00,WeatherDisplay:10.37,2013-05-04 13:09:00,
2013-05-04 06:14:00,40.3,34.6,30.21,ESE,112,0.0,0.0,80,0.00,CLR,FEW,0.00,WeatherDisplay:10.37,2013-05-04 13:14:00,
2013-05-04 06:19:00,41.2,35.5,30.21,ESE,112,0.0,0.0,80,0.00,CLR,FEW,0.00,WeatherDisplay:10.37,2013-05-04 13:19:00,
2013-05-04 06:24:00,42.6,37.2,30.21,ESE,112,0.0,0.0,81,0.00,CLR,FEW,0.00,WeatherDisplay:10.37,2013-05-04 13:24:00,
2013-05-04 06:29:00,44.2,38.1,30.21,ESE,112,0.0,0.0,79,0.00,CLR,FEW,0.00,WeatherDisplay:10.37,2013-05-04 13:29:00,
2013-05-04 06:34:00,45.3,38.9,30.21,ESE,112,0.0,0.0,78,0.00,CLR,FEW,0.00,WeatherDisplay:10.37,2013-05-04 13:34:00,
2013-05-04 06:39:00,46.6,39.8,30.22,ESE,112,0.0,0.0,77,0.00,CLR,FEW,0.00,WeatherDisplay:10.37,2013-05-04 13:39:00,
2013-05-04 06:44:00,48.2,41.0,30.21,ESE,112,0.0,0.0,76,0.00,CLR,FEW,0.00,WeatherDisplay:10.37,2013-05-04 13:44:00,
2013-05-04 06:49:00,49.3,41.0,30.21,ESE,112,0.0,0.0,73,0.00,CLR,FEW,0.00,WeatherDisplay:10.37,2013-05-04 13:49:00,
2013-05-04 06:54:00,50.5,41.8,30.21,ESE,112,0.0,0.0,72,0.00,CLR,FEW,0.00,WeatherDisplay:10.37,2013-05-04 13:54:00,
2013-05-04 06:59:00,51.1,42.0,30.21,ESE,112,0.0,0.0,71,0.00,CLR,FEW,0.00,WeatherDisplay:10.37,2013-05-04 13:59:00,
2013-05-04 07:04:00,52.0,42.5,30.21,ESE,112,0.0,0.0,70,0.00,CLR,FEW,0.00,WeatherDisplay:10.37,2013-05-04 14:04:00,
2013-05-04 07:09:00,54.3,44.0,30.20,ESE,112,0.0,0.0,68,0.00,CLR,FEW,0.00,WeatherDisplay:10.37,2013-05-04 14:09:00,
2013-05-04 07:14:00,55.9,44.7,30.21,ESE,112,0.0,0.0,66,0.00,CLR,FEW,0.00,WeatherDisplay:10.37,2013-05-04 14:14:00,
2013-05-04 07:19:00,57.4,44.9,30.21,East,90,0.0,0.0,63,0.00,CLR,FEW,0.00,WeatherDisplay:10.37,2013-05-04 14:19:00,
2013-05-04 07:24:00,57.9,44.5,30.21,East,90,1.2,1.6,61,0.00,CLR,FEW,0.00,WeatherDisplay:10.37,2013-05-04 14:24:00,
2013-05-04 07:29:00,57.7,43.5,30.21,ENE,68,0.0,0.0,59,0.00,CLR,FEW,0.00,WeatherDisplay:10.37,2013-05-04 14:29:00,
2013-05-04 07:34:00,58.1,43.4,30.20,ENE,68,0.0,0.0,58,0.00,CLR,FEW,0.00,WeatherDisplay:10.37,2013-05-04 14:34:00,
2013-05-04 07:39:00,58.8,43.6,30.20,ENE,68,0.0,0.0,57,0.00,CLR,FEW,0.00,WeatherDisplay:10.37,2013-05-04 14:39:00,
2013-05-04 07:44:00,58.8,43.6,30.20,ENE,68,0.0,0.0,57,0.00,CLR,FEW,0.00,WeatherDisplay:10.37,2013-05-04 14:44:00,
2013-05-04 07:49:00,59.7,44.5,30.19,ENE,68,0.0,0.0,57,0.00,CLR,FEW,0.00,WeatherDisplay:10.37,2013-05-04 14:49:00,
2013-05-04 07:54:00,61.0,44.7,30.19,ENE,68,0.0,0.0,55,0.00,CLR,FEW,0.00,WeatherDisplay:10.37,2013-05-04 14:54:00,
2013-05-04 07:59:00,61.2,44.4,30.19,ENE,68,0.0,0.0,54,0.00,CLR,FEW,0.00,WeatherDisplay:10.37,2013-05-04 14:59:00,
2013-05-04 08:04:00,61.0,43.7,30.18,ENE,68,0.0,0.0,53,0.00,CLR,FEW,0.00,WeatherDisplay:10.37,2013-05-04 15:04:00,
2013-05-04 08:09:00,61.5,44.7,30.19,ENE,68,0.0,0.0,54,0.00,CLR,FEW,0.00,WeatherDisplay:10.37,2013-05-04 15:09:00,
2013-05-04 08:14:00,62.2,44.9,30.19,ENE,68,0.0,0.0,53,0.00,CLR,FEW,0.00,WeatherDisplay:10.37,2013-05-04 15:14:00,
2013-05-04 08:19:00,63.1,45.7,30.18,ENE,68,0.0,0.0,53,0.00,CLR,FEW,0.00,WeatherDisplay:10.37,2013-05-04 15:19:00,
2013-05-04 08:24:00,64.6,46.6,30.18,ENE,68,0.0,0.0,52,0.00,CLR,FEW,0.00,WeatherDisplay:10.37,2013-05-04 15:24:00,
2013-05-04 08:29:00,64.8,46.2,30.18,ENE,68,0.0,0.0,51,0.00,CLR,FEW,0.00,WeatherDisplay:10.37,2013-05-04 15:29:00,
2013-05-04 08:34:00,64.9,46.4,30.18,ENE,68,0.0,0.0,51,0.00,CLR,FEW,0.00,WeatherDisplay:10.37,2013-05-04 15:34:00,
2013-05-04 08:39:00,65.8,46.7,30.18,ENE,68,0.0,0.0,50,0.00,CLR,FEW,0.00,WeatherDisplay:10.37,2013-05-04 15:39:00,
2013-05-04 08:44:00,67.8,47.4,30.17,SE,135,1.2,1.2,48,0.00,CLR,FEW,0.00,WeatherDisplay:10.37,2013-05-04 15:44:00,
2013-05-04 08:49:00,68.7,47.1,30.17,ESE,112,0.0,0.0,46,0.00,CLR,FEW,0.00,WeatherDisplay:10.37,2013-05-04 15:49:00,
2013-05-04 08:54:00,69.3,46.4,30.17,ENE,68,0.0,0.0,44,0.00,CLR,FEW,0.00,WeatherDisplay:10.37,2013-05-04 15:54:00,
2013-05-04 08:59:00,68.9,45.5,30.16,ENE,68,0.0,0.0,43,0.00,CLR,FEW,0.00,WeatherDisplay:10.37,2013-05-04 15:59:00,
2013-05-04 09:04:00,68.9,45.5,30.16,ENE,68,0.0,0.0,43,0.00,CLR,FEW,0.00,WeatherDisplay:10.37,2013-05-04 16:04:00,
2013-05-04 09:09:00,68.7,45.3,30.15,ENE,68,0.0,0.0,43,0.00,CLR,FEW,0.00,WeatherDisplay:10.37,2013-05-04 16:09:00,
2013-05-04 09:14:00,68.0,44.7,30.15,ENE,68,0.0,0.0,43,0.00,CLR,FEW,0.00,WeatherDisplay:10.37,2013-05-04 16:14:00,
2013-05-04 09:19:00,67.8,44.5,30.15,ENE,68,0.0,0.0,43,0.00,CLR,FEW,0.00,WeatherDisplay:10.37,2013-05-04 16:19:00,
2013-05-04 09:24:00,67.6,44.3,30.15,ENE,68,0.0,0.0,43,0.00,CLR,FEW,0.00,WeatherDisplay:10.37,2013-05-04 16:24:00,
2013-05-04 09:29:00,66.4,43.2,30.15,ENE,68,3.8,3.8,43,0.00,CLR,FEW,0.00,WeatherDisplay:10.37,2013-05-04 16:29:00,
2013-05-04 09:34:00,65.5,43.0,30.14,ESE,112,2.3,2.3,44,0.00,CLR,FEW,0.00,WeatherDisplay:10.37,2013-05-04 16:34:00,
2013-05-04 09:39:00,65.3,43.4,30.14,SE,135,0.0,1.5,45,0.00,CLR,FEW,0.00,WeatherDisplay:10.37,2013-05-04 16:39:00,
2013-05-04 09:44:00,66.0,44.1,30.13,SSE,158,0.0,0.0,45,0.00,CLR,FEW,0.00,WeatherDisplay:10.37,2013-05-04 16:44:00,
2013-05-04 09:49:00,66.6,45.1,30.13,ESE,112,0.0,0.0,46,0.00,CLR,FEW,0.00,WeatherDisplay:10.37,2013-05-04 16:49:00,
2013-05-04 09:54:00,66.6,45.1,30.13,SE,135,0.0,0.0,46,0.00,CLR,FEW,0.00,WeatherDisplay:10.37,2013-05-04 16:54:00,
2013-05-04 09:59:00,66.7,45.9,30.13,NE,45,1.2,1.2,47,0.00,CLR,FEW,0.00,WeatherDisplay:10.37,2013-05-04 16:59:00,
2013-05-04 10:04:00,66.4,45.0,30.13,ESE,112,2.3,2.5,46,0.00,CLR,FEW,0.00,WeatherDisplay:10.37,2013-05-04 17:04:00,
2013-05-04 10:09:00,66.0,45.2,30.13,ESE,112,0.0,0.0,47,0.00,CLR,FEW,0.00,WeatherDisplay:10.37,2013-05-04 17:09:00,
2013-05-04 10:14:00,66.4,45.0,30.13,ESE,112,0.0,0.0,46,0.00,CLR,FEW,0.00,WeatherDisplay:10.37,2013-05-04 17:14:00,
2013-05-04 10:19:00,66.4,45.5,30.12,ESE,112,0.0,0.0,47,0.00,CLR,FEW,0.00,WeatherDisplay:10.37,2013-05-04 17:19:00,
2013-05-04 10:24:00,66.4,45.5,30.11,ENE,68,0.0,0.0,47,0.00,CLR,FEW,0.00,WeatherDisplay:10.37,2013-05-04 17:24:00,
2013-05-04 10:29:00,66.0,44.6,30.12,ENE,68,0.0,0.0,46,0.00,CLR,FEW,0.00,WeatherDisplay:10.37,2013-05-04 17:29:00,
2013-05-04 10:34:00,66.0,45.8,30.11,SW,225,0.0,0.0,48,0.00,CLR,FEW,0.00,WeatherDisplay:10.37,2013-05-04 17:34:00,
2013-05-04 10:39:00,66.0,45.2,30.11,East,90,0.0,0.1,47,0.00,CLR,FEW,0.00,WeatherDisplay:10.37,2013-05-04 17:39:00,
2013-05-04 10:44:00,66.0,45.2,30.11,East,90,0.0,0.0,47,0.00,CLR,FEW,0.00,WeatherDisplay:10.37,2013-05-04 17:44:00,
2013-05-04 10:49:00,66.2,45.4,30.11,East,90,0.0,0.0,47,0.00,CLR,FEW,0.00,WeatherDisplay:10.37,2013-05-04 17:49:00,
2013-05-04 10:55:00,66.4,45.5,30.11,NNE,22,0.0,0.0,47,0.00,CLR,FEW,0.00,WeatherDisplay:10.37,2013-05-04 17:55:00,
2013-05-04 11:00:00,66.6,45.1,30.11,NE,45,3.5,3.5,46,0.00,CLR,FEW,0.00,WeatherDisplay:10.37,2013-05-04 18:00:00,
2013-05-04 11:05:00,66.7,45.9,30.10,NE,45,0.0,0.0,47,0.00,CLR,FEW,0.00,WeatherDisplay:10.37,2013-05-04 18:05:00,
2013-05-04 11:10:00,66.9,45.5,30.10,ENE,68,0.0,0.0,46,0.00,CLR,FEW,0.00,WeatherDisplay:10.37,2013-05-04 18:10:00,
2013-05-04 11:15:00,67.3,45.8,30.10,NE,45,0.0,0.0,46,0.00,CLR,FEW,0.00,WeatherDisplay:10.37,2013-05-04 18:15:00,
2013-05-04 11:20:00,67.8,46.3,30.10,NE,45,0.0,0.0,46,0.00,CLR,FEW,0.00,WeatherDisplay:10.37,2013-05-04 18:20:00,
2013-05-04 11:25:00,67.8,45.7,30.10,North,0,2.3,2.7,45,0.00,CLR,FEW,0.00,WeatherDisplay:10.37,2013-05-04 18:25:00,
2013-05-04 11:30:00,68.2,46.0,30.09,NW,315,0.0,0.4,45,0.00,CLR,FEW,0.00,WeatherDisplay:10.37,2013-05-04 18:30:00,
2013-05-04 11:35:00,68.5,46.9,30.09,NNE,22,0.0,0.0,46,0.00,CLR,FEW,0.00,WeatherDisplay:10.37,2013-05-04 18:35:00,
2013-05-04 11:40:00,69.1,45.6,30.09,NW,315,0.0,0.0,43,0.00,CLR,FEW,0.00,WeatherDisplay:10.37,2013-05-04 18:40:00,
2013-05-04 11:45:00,69.8,45.7,30.08,WSW,248,0.0,0.0,42,0.00,CLR,FEW,0.00,WeatherDisplay:10.37,2013-05-04 18:45:00,
2013-05-04 11:50:00,70.3,46.2,30.08,South,180,4.6,0.0,42,0.00,CLR,FEW,0.00,WeatherDisplay:10.37,2013-05-04 18:50:00,
2013-05-04 11:55:00,70.9,45.3,30.08,WSW,248,6.9,6.9,40,0.00,CLR,FEW,0.00,WeatherDisplay:10.37,2013-05-04 18:55:00,
2013-05-04 12:00:00,71.4,44.5,30.08,WSW,248,0.0,0.0,38,0.00,CLR,FEW,0.00,WeatherDisplay:10.37,2013-05-04 19:00:00,
2013-05-04 12:05:00,71.4,43.1,30.08,SSW,202,0.0,0.0,36,0.00,CLR,FEW,0.00,WeatherDisplay:10.37,2013-05-04 19:05:00,
2013-05-04 12:10:00,71.8,44.8,30.08,ENE,68,0.0,0.0,38,0.00,CLR,FEW,0.00,WeatherDisplay:10.37,2013-05-04 19:10:00,
2013-05-04 12:15:00,71.8,43.4,30.07,ENE,68,0.0,0.0,36,0.00,CLR,FEW,0.00,WeatherDisplay:10.37,2013-05-04 19:15:00,
2013-05-04 12:20:00,71.8,44.1,30.07,ESE,112,0.0,0.0,37,0.00,CLR,FEW,0.00,WeatherDisplay:10.37,2013-05-04 19:20:00,
2013-05-04 12:25:00,72.0,44.3,30.07,ESE,112,0.0,0.0,37,0.00,CLR,FEW,0.00,WeatherDisplay:10.37,2013-05-04 19:25:00,
2013-05-04 12:30:00,72.0,43.5,30.06,SSE,158,0.0,0.0,36,0.00,CLR,FEW,0.00,WeatherDisplay:10.37,2013-05-04 19:30:00,
2013-05-04 12:35:00,72.3,43.1,30.06,South,180,0.0,0.0,35,0.00,CLR,FEW,0.00,WeatherDisplay:10.37,2013-05-04 19:35:00,
2013-05-04 12:40:00,72.3,42.4,30.06,South,180,0.0,0.0,34,0.00,CLR,FEW,0.00,WeatherDisplay:10.37,2013-05-04 19:40:00,
2013-05-04 12:45:00,72.3,42.4,30.06,North,0,0.0,0.0,34,0.00,CLR,FEW,0.00,WeatherDisplay:10.37,2013-05-04 19:45:00,
2013-05-04 12:50:00,72.3,42.4,30.06,East,90,0.0,0.0,34,0.00,CLR,FEW,0.00,WeatherDisplay:10.37,2013-05-04 19:50:00,
2013-05-04 12:55:00,72.3,42.4,30.06,East,90,0.0,0.0,34,0.00,CLR,FEW,0.00,WeatherDisplay:10.37,2013-05-04 19:55:00,
2013-05-04 13:00:00,72.3,42.4,30.05,ENE,68,3.5,3.5,34,0.00,CLR,FEW,0.00,WeatherDisplay:10.37,2013-05-04 20:00:00,
2013-05-04 13:05:00,72.1,39.8,30.05,NNE,22,13.8,13.8,31,0.00,CLR,FEW,0.00,WeatherDisplay:10.37,2013-05-04 20:05:00,
2013-05-04 13:10:00,72.0,38.8,30.05,North,0,9.2,9.2,30,0.00,CLR,FEW,0.00,WeatherDisplay:10.37,2013-05-04 20:10:00,
2013-05-04 13:15:00,71.8,38.7,30.05,NNW,338,3.5,3.5,30,0.00,CLR,FEW,0.00,WeatherDisplay:10.37,2013-05-04 20:15:00,
2013-05-04 13:20:00,71.4,37.5,30.05,NNE,22,6.9,6.9,29,0.00,CLR,FEW,0.00,WeatherDisplay:10.37,2013-05-04 20:20:00,
2013-05-04 13:25:00,71.4,37.5,30.05,ENE,68,2.3,2.3,29,0.00,CLR,FEW,0.00,WeatherDisplay:10.37,2013-05-04 20:25:00,
2013-05-04 13:30:00,71.4,38.4,30.04,North,0,9.2,9.2,30,0.00,CLR,FEW,0.00,WeatherDisplay:10.37,2013-05-04 20:30:00,
2013-05-04 13:35:00,72.0,38.8,30.04,ENE,68,6.9,6.9,30,0.00,CLR,FEW,0.00,WeatherDisplay:10.37,2013-05-04 20:35:00,
2013-05-04 13:40:00,72.3,38.3,30.04,NNE,22,3.5,3.6,29,0.00,CLR,FEW,0.00,WeatherDisplay:10.37,2013-05-04 20:40:00,
2013-05-04 13:45:00,72.5,37.5,30.04,NNE,22,8.1,8.3,28,0.00,CLR,FEW,0.00,WeatherDisplay:10.37,2013-05-04 20:45:00,
2013-05-04 13:50:00,72.5,37.5,30.04,NNE,22,8.1,8.1,28,0.00,CLR,FEW,0.00,WeatherDisplay:10.37,2013-05-04 20:50:00,
2013-05-04 13:55:00,72.7,37.7,30.04,ENE,68,9.2,9.2,28,0.00,CLR,FEW,0.00,WeatherDisplay:10.37,2013-05-04 20:55:00,
2013-05-04 14:00:00,72.5,36.6,30.04,ENE,68,4.6,4.7,27,0.00,CLR,FEW,0.00,WeatherDisplay:10.37,2013-05-04 21:00:00,
2013-05-04 14:05:00,72.5,38.4,30.03,ENE,68,4.6,4.6,29,0.00,CLR,FEW,0.00,WeatherDisplay:10.37,2013-05-04 21:05:00,
2013-05-04 14:10:00,72.5,37.5,30.03,NNW,338,10.4,10.4,28,0.00,CLR,FEW,0.00,WeatherDisplay:10.37,2013-05-04 21:10:00,
2013-05-04 14:15:00,72.5,35.6,30.03,North,0,10.4,10.5,26,0.00,CLR,FEW,0.00,WeatherDisplay:10.37,2013-05-04 21:15:00,
2013-05-04 14:20:00,72.5,35.6,30.02,NNW,338,0.0,0.0,26,0.00,CLR,FEW,0.00,WeatherDisplay:10.37,2013-05-04 21:20:00,
2013-05-04 14:25:00,72.5,35.6,30.02,ENE,68,5.8,6.0,26,0.00,CLR,FEW,0.00,WeatherDisplay:10.37,2013-05-04 21:25:00,
2013-05-04 14:31:00,72.5,37.5,30.02,North,0,7.2,7.2,28,0.00,CLR,FEW,0.00,WeatherDisplay:10.37,2013-05-04 21:31:00,
2013-05-04 14:36:00,72.3,37.4,30.02,NNE,22,6.9,6.9,28,0.00,CLR,FEW,0.00,WeatherDisplay:10.37,2013-05-04 21:36:00,
2013-05-04 14:41:00,72.3,35.5,30.02,NNE,22,10.4,10.4,26,0.00,CLR,FEW,0.00,WeatherDisplay:10.37,2013-05-04 21:41:00,
2013-05-04 14:46:00,72.3,35.5,30.01,NE,45,5.8,5.8,26,0.00,CLR,FEW,0.00,WeatherDisplay:10.37,2013-05-04 21:46:00,
2013-05-04 14:51:00,72.3,35.5,30.02,North,0,6.9,7.4,26,0.00,CLR,FEW,0.00,WeatherDisplay:10.37,2013-05-04 21:51:00,
2013-05-04 14:56:00,72.1,35.3,30.02,East,90,4.6,5.1,26,0.00,CLR,FEW,0.00,WeatherDisplay:10.37,2013-05-04 21:56:00,
2013-05-04 15:01:00,72.0,35.2,30.01,NE,45,8.1,8.1,26,0.00,CLR,FEW,0.00,WeatherDisplay:10.37,2013-05-04 22:01:00,
2013-05-04 15:06:00,72.0,36.1,30.01,ENE,68,6.9,6.9,27,0.00,CLR,FEW,0.00,WeatherDisplay:10.37,2013-05-04 22:06:00,
2013-05-04 15:11:00,72.1,35.3,30.01,ENE,68,6.9,6.9,26,0.00,CLR,FEW,0.00,WeatherDisplay:10.37,2013-05-04 22:11:00,
2013-05-04 15:16:00,72.0,35.2,30.01,ENE,68,8.1,8.1,26,0.00,CLR,FEW,0.00,WeatherDisplay:10.37,2013-05-04 22:16:00,
2013-05-04 15:21:00,72.0,37.1,30.01,ENE,68,4.6,4.6,28,0.00,CLR,FEW,0.00,WeatherDisplay:10.37,2013-05-04 22:21:00,
2013-05-04 15:26:00,72.3,35.5,30.00,NE,45,10.5,10.5,26,0.00,CLR,FEW,0.00,WeatherDisplay:10.37,2013-05-04 22:26:00,
2013-05-04 15:31:00,72.3,35.5,30.00,ENE,68,10.4,10.4,26,0.00,CLR,FEW,0.00,WeatherDisplay:10.37,2013-05-04 22:31:00,
2013-05-04 15:36:00,72.3,35.5,30.00,ENE,68,3.5,3.5,26,0.00,CLR,FEW,0.00,WeatherDisplay:10.37,2013-05-04 22:36:00,
2013-05-04 15:41:00,72.3,35.5,30.00,NE,45,6.9,6.9,26,0.00,CLR,FEW,0.00,WeatherDisplay:10.37,2013-05-04 22:41:00,
2013-05-04 15:46:00,72.7,34.8,29.99,NE,45,12.7,12.7,25,0.00,CLR,FEW,0.00,WeatherDisplay:10.37,2013-05-04 22:46:00,
2013-05-04 15:51:00,73.0,35.1,29.99,ENE,68,11.5,11.5,25,0.00,CLR,FEW,0.00,WeatherDisplay:10.37,2013-05-04 22:51:00,
2013-05-04 15:56:00,73.6,34.5,29.99,NNE,22,13.8,13.8,24,0.00,CLR,FEW,0.00,WeatherDisplay:10.37,2013-05-04 22:56:00,
2013-05-04 16:01:00,73.4,34.4,29.99,ENE,68,10.4,10.4,24,0.00,CLR,FEW,0.00,WeatherDisplay:10.37,2013-05-04 23:01:00,
2013-05-04 16:06:00,73.2,34.2,29.98,North,0,3.6,3.6,24,0.00,CLR,FEW,0.00,WeatherDisplay:10.37,2013-05-04 23:06:00,
2013-05-04 16:11:00,73.0,35.1,29.99,NNW,338,11.5,11.5,25,0.00,CLR,FEW,0.00,WeatherDisplay:10.37,2013-05-04 23:11:00,
2013-05-04 16:16:00,72.7,33.8,29.99,NE,45,11.5,11.5,24,0.00,CLR,FEW,0.00,WeatherDisplay:10.37,2013-05-04 23:16:00,
2013-05-04 16:21:00,72.3,34.5,29.99,NE,45,0.0,0.0,25,0.00,CLR,FEW,0.00,WeatherDisplay:10.37,2013-05-04 23:21:00,
2013-05-04 16:26:00,72.5,35.6,29.98,NNE,22,0.0,0.0,26,0.00,CLR,FEW,0.00,WeatherDisplay:10.37,2013-05-04 23:26:00,
2013-05-04 16:31:00,72.7,35.8,29.98,NNE,22,3.5,3.5,26,0.00,CLR,FEW,0.00,WeatherDisplay:10.37,2013-05-04 23:31:00,
2013-05-04 16:36:00,73.2,36.3,29.97,ENE,68,6.9,6.9,26,0.00,CLR,FEW,0.00,WeatherDisplay:10.37,2013-05-04 23:36:00,
2013-05-04 16:41:00,73.2,35.3,29.98,NE,45,12.7,12.7,25,0.00,CLR,FEW,0.00,WeatherDisplay:10.37,2013-05-04 23:41:00,
2013-05-04 16:46:00,73.0,35.1,29.98,NNW,338,9.2,9.2,25,0.00,CLR,FEW,0.00,WeatherDisplay:10.37,2013-05-04 23:46:00,
2013-05-04 16:51:00,72.7,34.8,29.98,North,0,8.1,8.1,25,0.00,CLR,FEW,0.00,WeatherDisplay:10.37,2013-05-04 23:51:00,
2013-05-04 16:56:00,72.3,34.5,29.98,NNW,338,6.9,7.0,25,0.00,CLR,FEW,0.00,WeatherDisplay:10.37,2013-05-04 23:56:00,
2013-05-04 17:01:00,72.3,33.5,29.98,NE,45,10.4,10.4,24,0.00,CLR,FEW,0.00,WeatherDisplay:10.37,2013-05-05 00:01:00,
2013-05-04 17:07:00,72.1,33.3,29.98,NE,45,16.1,16.1,24,0.00,CLR,FEW,0.00,WeatherDisplay:10.37,2013-05-05 00:07:00,
2013-05-04 17:12:00,72.1,34.4,29.98,ENE,68,16.1,16.1,25,0.00,CLR,FEW,0.00,WeatherDisplay:10.37,2013-05-05 00:12:00,
2013-05-04 17:17:00,72.5,34.7,29.97,NNE,22,12.1,0.0,25,0.00,CLR,FEW,0.00,WeatherDisplay:10.37,2013-05-05 00:17:00,
2013-05-04 17:22:00,72.5,34.7,29.98,North,0,11.5,11.9,25,0.00,CLR,FEW,0.00,WeatherDisplay:10.37,2013-05-05 00:22:00,
2013-05-04 17:27:00,72.5,33.6,29.97,NNE,22,4.6,4.6,24,0.00,CLR,FEW,0.00,WeatherDisplay:10.37,2013-05-05 00:27:00,
2013-05-04 17:32:00,72.5,34.7,29.97,NE,45,8.1,8.1,25,0.00,CLR,FEW,0.00,WeatherDisplay:10.37,2013-05-05 00:32:00,
2013-05-04 17:37:00,72.5,34.7,29.97,NE,45,0.0,3.0,25,0.00,CLR,FEW,0.00,WeatherDisplay:10.37,2013-05-05 00:37:00,
2013-05-04 17:42:00,72.5,34.7,29.98,NNW,338,4.6,5.1,25,0.00,CLR,FEW,0.00,WeatherDisplay:10.37,2013-05-05 00:42:00,
2013-05-04 17:47:00,72.5,33.6,29.97,North,0,4.6,4.6,24,0.00,CLR,FEW,0.00,WeatherDisplay:10.37,2013-05-05 00:47:00,
2013-05-04 17:52:00,72.3,34.5,29.97,NNE,22,10.4,10.4,25,0.00,CLR,FEW,0.00,WeatherDisplay:10.37,2013-05-05 00:52:00,
2013-05-04 17:57:00,72.3,34.5,29.97,NE,45,8.1,8.1,25,0.00,CLR,FEW,0.00,WeatherDisplay:10.37,2013-05-05 00:57:00,
2013-05-04 18:02:00,72.3,34.5,29.97,ENE,68,16.1,16.1,25,0.00,CLR,FEW,0.00,WeatherDisplay:10.37,2013-05-05 01:02:00,
2013-05-04 18:07:00,72.1,34.4,29.97,ENE,68,5.8,5.8,25,0.00,CLR,FEW,0.00,WeatherDisplay:10.37,2013-05-05 01:07:00,
2013-05-04 18:12:00,72.1,34.4,29.97,North,0,6.9,6.9,25,0.00,CLR,FEW,0.00,WeatherDisplay:10.37,2013-05-05 01:12:00,
2013-05-04 18:17:00,72.1,34.4,29.97,North,0,2.9,2.9,25,0.00,CLR,FEW,0.00,WeatherDisplay:10.37,2013-05-05 01:17:00,
2013-05-04 18:22:00,72.0,34.2,29.96,NNE,22,8.1,8.1,25,0.00,CLR,FEW,0.00,WeatherDisplay:10.37,2013-05-05 01:22:00,
2013-05-04 18:27:00,72.0,34.2,29.97,NE,45,10.4,10.4,25,0.00,CLR,FEW,0.00,WeatherDisplay:10.37,2013-05-05 01:27:00,
2013-05-04 18:32:00,71.8,34.0,29.96,North,0,9.2,9.2,25,0.00,CLR,FEW,0.00,WeatherDisplay:10.37,2013-05-05 01:32:00,
2013-05-04 18:37:00,71.8,34.0,29.96,North,0,6.9,6.9,25,0.00,CLR,FEW,0.00,WeatherDisplay:10.37,2013-05-05 01:37:00,
2013-05-04 18:42:00,71.4,33.7,29.96,NNE,22,10.4,10.4,25,0.00,CLR,FEW,0.00,WeatherDisplay:10.37,2013-05-05 01:42:00,
2013-05-04 18:47:00,71.4,33.7,29.96,ENE,68,4.6,5.2,25,0.00,CLR,FEW,0.00,WeatherDisplay:10.37,2013-05-05 01:47:00,
2013-05-04 18:52:00,71.2,33.6,29.96,ENE,68,5.8,5.8,25,0.00,CLR,FEW,0.00,WeatherDisplay:10.37,2013-05-05 01:52:00,
2013-05-04 18:57:00,71.2,33.6,29.97,North,0,3.5,0.0,25,0.00,CLR,FEW,0.00,WeatherDisplay:10.37,2013-05-05 01:57:00,
2013-05-04 19:02:00,70.9,33.3,29.97,North,0,10.4,10.4,25,0.00,CLR,FEW,0.00,WeatherDisplay:10.37,2013-05-05 02:02:00,
2013-05-04 19:07:00,70.5,33.0,29.96,NNE,22,9.2,9.2,25,0.00,CLR,FEW,0.00,WeatherDisplay:10.37,2013-05-05 02:07:00,
2013-05-04 19:12:00,70.3,32.8,29.97,North,0,5.8,5.8,25,0.00,CLR,FEW,0.00,WeatherDisplay:10.37,2013-05-05 02:12:00,
2013-05-04 19:17:00,70.0,33.5,29.97,NNE,22,5.8,5.8,26,0.00,CLR,FEW,0.00,WeatherDisplay:10.37,2013-05-05 02:17:00,
2013-05-04 19:22:00,69.8,33.3,29.97,NE,45,0.0,0.0,26,0.00,CLR,FEW,0.00,WeatherDisplay:10.37,2013-05-05 02:22:00,
2013-05-04 19:27:00,69.6,33.2,29.97,NNE,22,6.9,0.0,26,0.00,CLR,FEW,0.00,WeatherDisplay:10.37,2013-05-05 02:27:00,
2013-05-04 19:32:00,69.3,33.8,29.97,NNE,22,7.4,7.4,27,0.00,CLR,FEW,0.00,WeatherDisplay:10.37,2013-05-05 02:32:00,
2013-05-04 19:37:00,68.9,33.5,29.97,NNE,22,3.5,3.5,27,0.00,CLR,FEW,0.00,WeatherDisplay:10.37,2013-05-05 02:37:00,
2013-05-04 19:42:00,68.7,33.4,29.97,NNE,22,0.0,0.0,27,0.00,CLR,FEW,0.00,WeatherDisplay:10.37,2013-05-05 02:42:00,
2013-05-04 19:47:00,68.2,33.8,29.97,NNE,22,4.6,4.6,28,0.00,CLR,FEW,0.00,WeatherDisplay:10.37,2013-05-05 02:47:00,
2013-05-04 19:52:00,68.0,33.7,29.97,North,0,0.0,0.0,28,0.00,CLR,FEW,0.00,WeatherDisplay:10.37,2013-05-05 02:52:00,
2013-05-04 19:57:00,67.8,33.5,29.97,NE,45,0.0,0.0,28,0.00,CLR,FEW,0.00,WeatherDisplay:10.37,2013-05-05 02:57:00,
2013-05-04 20:02:00,67.5,34.1,29.97,NNE,22,4.6,4.6,29,0.00,CLR,FEW,0.00,WeatherDisplay:10.37,2013-05-05 03:02:00,
2013-05-04 20:07:00,66.9,33.6,29.97,North,0,8.1,8.1,29,0.00,CLR,FEW,0.00,WeatherDisplay:10.37,2013-05-05 03:07:00,
2013-05-04 20:12:00,66.9,34.5,29.98,NNE,22,5.8,5.8,30,0.00,CLR,FEW,0.00,WeatherDisplay:10.37,2013-05-05 03:12:00,
2013-05-04 20:17:00,66.6,34.1,29.97,NNE,22,0.0,0.0,30,0.00,CLR,FEW,0.00,WeatherDisplay:10.37,2013-05-05 03:17:00,
2013-05-04 20:22:00,66.6,35.0,29.98,North,0,0.0,0.0,31,0.00,CLR,FEW,0.00,WeatherDisplay:10.37,2013-05-05 03:22:00,
2013-05-04 20:27:00,65.7,35.0,29.98,North,0,0.0,0.0,32,0.00,CLR,FEW,0.00,WeatherDisplay:10.37,2013-05-05 03:27:00,
2013-05-04 20:32:00,65.3,34.7,29.98,North,0,0.0,0.0,32,0.00,CLR,FEW,0.00,WeatherDisplay:10.37,2013-05-05 03:32:00,
2013-05-04 20:37:00,64.6,34.0,29.98,NNE,22,0.0,0.0,32,0.00,CLR,FEW,0.00,WeatherDisplay:10.37,2013-05-05 03:37:00,
2013-05-04 20:42:00,64.0,34.3,29.98,NNE,22,0.0,0.0,33,0.00,CLR,FEW,0.00,WeatherDisplay:10.37,2013-05-05 03:42:00,
2013-05-04 20:47:00,63.7,34.0,29.98,NNE,22,0.0,0.0,33,0.00,CLR,FEW,0.00,WeatherDisplay:10.37,2013-05-05 03:47:00,
2013-05-04 20:52:00,63.5,33.9,29.98,NNE,22,0.0,0.0,33,0.00,CLR,FEW,0.00,WeatherDisplay:10.37,2013-05-05 03:52:00,
2013-05-04 20:57:00,63.1,34.3,29.98,North,0,0.0,0.0,34,0.00,CLR,FEW,0.00,WeatherDisplay:10.37,2013-05-05 03:57:00,
2013-05-04 21:01:00,63.0,34.9,29.98,North,0,0.0,0.0,35,0.00,CLR,FEW,0.00,WeatherDisplay:10.37,2013-05-05 04:01:00,
2013-05-04 21:02:00,63.0,34.9,29.98,North,0,0.0,0.0,35,0.00,CLR,FEW,0.00,WeatherDisplay:10.37,2013-05-05 04:02:00,
2013-05-04 21:03:00,63.0,35.6,29.98,North,0,0.0,0.0,36,0.00,CLR,FEW,0.00,WeatherDisplay:10.37,2013-05-05 04:03:00,
2013-05-04 21:08:00,61.9,35.3,29.99,North,0,0.0,0.0,37,0.00,CLR,FEW,0.00,WeatherDisplay:10.37,2013-05-05 04:08:00,
2013-05-04 21:13:00,61.3,35.5,29.99,NW,315,0.0,0.0,38,0.00,CLR,FEW,0.00,WeatherDisplay:10.37,2013-05-05 04:13:00,
2013-05-04 21:18:00,60.6,34.9,29.99,NW,315,0.0,0.0,38,0.00,CLR,FEW,0.00,WeatherDisplay:10.37,2013-05-05 04:18:00,
2013-05-04 21:23:00,59.9,34.9,29.99,WNW,292,0.0,0.0,39,0.00,CLR,FEW,0.00,WeatherDisplay:10.37,2013-05-05 04:23:00,
2013-05-04 21:28:00,59.5,34.5,29.99,WNW,292,0.0,0.0,39,0.00,CLR,FEW,0.00,WeatherDisplay:10.37,2013-05-05 04:28:00,
2013-05-04 21:33:00,58.8,35.2,29.99,West,270,0.0,0.0,41,0.00,CLR,FEW,0.00,WeatherDisplay:10.37,2013-05-05 04:33:00,
2013-05-04 21:38:00,58.3,34.7,29.99,WSW,248,0.0,0.0,41,0.00,CLR,FEW,0.00,WeatherDisplay:10.37,2013-05-05 04:38:00,
2013-05-04 21:43:00,57.9,34.9,29.99,WSW,248,0.0,0.0,42,0.00,CLR,FEW,0.00,WeatherDisplay:10.37,2013-05-05 04:43:00,
2013-05-04 21:48:00,57.4,35.0,29.99,WSW,248,0.0,0.0,43,0.00,CLR,FEW,0.00,WeatherDisplay:10.37,2013-05-05 04:48:00,
2013-05-04 21:53:00,56.8,35.1,29.99,WSW,248,0.0,0.0,44,0.00,CLR,FEW,0.00,WeatherDisplay:10.37,2013-05-05 04:53:00,
2013-05-04 21:58:00,56.5,35.4,29.99,SSW,202,0.0,0.0,45,0.00,CLR,FEW,0.00,WeatherDisplay:10.37,2013-05-05 04:58:00,
2013-05-04 22:03:00,56.3,35.2,29.99,South,180,0.0,0.0,45,0.00,CLR,FEW,0.00,WeatherDisplay:10.37,2013-05-05 05:03:00,
2013-05-04 22:08:00,55.8,35.3,29.99,South,180,0.0,0.0,46,0.00,CLR,FEW,0.00,WeatherDisplay:10.37,2013-05-05 05:08:00,
2013-05-04 22:13:00,55.6,35.1,29.99,South,180,0.0,0.0,46,0.00,CLR,FEW,0.00,WeatherDisplay:10.37,2013-05-05 05:13:00,
2013-05-04 22:18:00,55.2,34.8,29.99,South,180,0.0,0.0,46,0.00,CLR,FEW,0.00,WeatherDisplay:10.37,2013-05-05 05:18:00,
2013-05-04 22:23:00,55.0,35.2,29.99,South,180,0.0,0.0,47,0.00,CLR,FEW,0.00,WeatherDisplay:10.37,2013-05-05 05:23:00,
2013-05-04 22:28:00,55.0,35.7,29.99,SSW,202,0.0,0.0,48,0.00,CLR,FEW,0.00,WeatherDisplay:10.37,2013-05-05 05:28:00,
2013-05-04 22:33:00,54.9,35.5,29.98,SSW,202,0.0,0.0,48,0.00,CLR,FEW,0.00,WeatherDisplay:10.37,2013-05-05 05:33:00,
2013-05-04 22:38:00,54.7,35.4,29.98,SSW,202,0.0,0.0,48,0.00,CLR,FEW,0.00,WeatherDisplay:10.37,2013-05-05 05:38:00,
2013-05-04 22:43:00,54.5,35.2,29.99,SSW,202,0.0,0.0,48,0.00,CLR,FEW,0.00,WeatherDisplay:10.37,2013-05-05 05:43:00,
2013-05-04 22:48:00,54.3,35.0,29.99,SSW,202,0.0,0.0,48,0.00,CLR,FEW,0.00,WeatherDisplay:10.37,2013-05-05 05:48:00,
2013-05-04 22:53:00,54.3,35.0,29.99,SW,225,0.0,0.0,48,0.00,CLR,FEW,0.00,WeatherDisplay:10.37,2013-05-05 05:53:00,
2013-05-04 22:58:00,54.3,35.5,29.99,SW,225,0.0,0.0,49,0.00,CLR,FEW,0.00,WeatherDisplay:10.37,2013-05-05 05:58:00,
2013-05-04 23:03:00,54.1,34.9,29.99,South,180,0.0,0.0,48,0.00,CLR,FEW,0.00,WeatherDisplay:10.37,2013-05-05 06:03:00,
2013-05-04 23:08:00,54.0,35.2,29.99,South,180,0.0,0.0,49,0.00,CLR,FEW,0.00,WeatherDisplay:10.37,2013-05-05 06:08:00,
2013-05-04 23:13:00,53.8,35.1,29.99,SSW,202,0.0,0.0,49,0.00,CLR,FEW,0.00,WeatherDisplay:10.37,2013-05-05 06:13:00,
2013-05-04 23:18:00,53.6,34.9,29.99,SSW,202,0.0,0.0,49,0.00,CLR,FEW,0.00,WeatherDisplay:10.37,2013-05-05 06:18:00,
2013-05-04 23:23:00,53.4,34.7,29.99,SSW,202,0.0,0.0,49,0.00,CLR,FEW,0.00,WeatherDisplay:10.37,2013-05-05 06:23:00,
2013-05-04 23:28:00,53.2,35.1,29.98,SSW,202,0.0,0.0,50,0.00,CLR,FEW,0.00,WeatherDisplay:10.37,2013-05-05 06:28:00,
2013-05-04 23:33:00,53.1,34.9,29.98,SSW,202,0.0,0.0,50,0.00,CLR,FEW,0.00,WeatherDisplay:10.37,2013-05-05 06:33:00,
2013-05-04 23:38:00,52.7,35.1,29.98,SSW,202,0.0,0.0,51,0.00,CLR,FEW,0.00,WeatherDisplay:10.37,2013-05-05 06:38:00,
2013-05-04 23:43:00,52.5,34.9,29.99,SSW,202,0.0,0.0,51,0.00,CLR,FEW,0.00,WeatherDisplay:10.37,2013-05-05 06:43:00,
2013-05-04 23:48:00,52.3,34.7,29.98,SSW,202,0.0,0.0,51,0.00,CLR,FEW,0.00,WeatherDisplay:10.37,2013-05-05 06:48:00,
2013-05-04 23:53:00,52.3,34.7,29.98,SSW,202,0.0,0.0,51,0.00,CLR,FEW,0.00,WeatherDisplay:10.37,2013-05-05 06:53:00,
2013-05-04 23:58:00,52.0,34.9,29.99,SSW,202,0.0,0.0,52,0.00,CLR,FEW,0.00,WeatherDisplay:10.37,2013-05-05 06:58:00,